createdAt,value
2022-12-17T00:00:30.603Z,1000.26
2022-12-17T00:01:30.505Z,1000.23
2022-12-17T00:02:30.679Z,1000.26
2022-12-17T00:03:30.626Z,1000.25
2022-12-17T00:04:30.482Z,1000.24
2022-12-17T00:05:30.451Z,1000.26
2022-12-17T00:06:30.458Z,1000.25
2022-12-17T00:07:30.425Z,1000.21
2022-12-17T00:08:30.435Z,1000.28
2022-12-17T00:09:30.431Z,1000.27
2022-12-17T00:10:30.418Z,1000.23
2022-12-17T00:11:30.418Z,1000.29
2022-12-17T00:12:30.430Z,1000.35
2022-12-17T00:13:30.456Z,1000.34
2022-12-17T00:14:30.443Z,1000.28
2022-12-17T00:15:30.384Z,1000.31
2022-12-17T00:16:30.404Z,1000.33
2022-12-17T00:17:30.408Z,1000.37
2022-12-17T00:18:30.416Z,1000.42
2022-12-17T00:19:30.364Z,1000.44
2022-12-17T00:20:30.361Z,1000.46
2022-12-17T00:21:30.383Z,1000.41
2022-12-17T00:22:30.375Z,1000.44
2022-12-17T00:23:30.350Z,1000.51
2022-12-17T00:24:30.350Z,1000.50
2022-12-17T00:25:30.339Z,1000.52
2022-12-17T00:26:30.344Z,1000.59
2022-12-17T00:27:30.321Z,1000.59
2022-12-17T00:28:30.319Z,1000.64
2022-12-17T00:29:30.324Z,1000.65
2022-12-17T00:30:30.471Z,1000.61
2022-12-17T00:31:30.356Z,1000.66
2022-12-17T00:32:30.319Z,1000.67
2022-12-17T00:33:30.314Z,1000.72
2022-12-17T00:34:30.292Z,1000.64
2022-12-17T00:35:30.299Z,1000.64
2022-12-17T00:36:30.302Z,1000.62
2022-12-17T00:37:30.283Z,1000.63
2022-12-17T00:38:30.284Z,1000.66
2022-12-17T00:39:30.256Z,1000.68
2022-12-17T00:40:30.266Z,1000.63
2022-12-17T00:41:30.262Z,1000.70
2022-12-17T00:42:30.246Z,1000.64
2022-12-17T00:43:30.247Z,1000.66
2022-12-17T00:44:30.254Z,1000.64
2022-12-17T00:45:30.225Z,1000.69
2022-12-17T00:46:30.308Z,1000.72
2022-12-17T00:47:30.250Z,1000.74
2022-12-17T00:48:30.267Z,1000.77
2022-12-17T00:49:30.241Z,1000.74
2022-12-17T00:50:30.279Z,1000.83
2022-12-17T00:51:30.185Z,1000.80
2022-12-17T00:52:30.441Z,1000.81
2022-12-17T00:53:30.193Z,1000.82
2022-12-17T00:54:30.179Z,1000.81
2022-12-17T00:55:30.495Z,1000.81
2022-12-17T00:56:30.186Z,1000.85
2022-12-17T00:57:30.183Z,1000.86
2022-12-17T00:58:30.182Z,1000.85
2022-12-17T00:59:30.143Z,1000.84
2022-12-17T01:00:30.225Z,1000.88
2022-12-17T01:01:30.415Z,1000.84
2022-12-17T01:02:30.273Z,1000.86
2022-12-17T01:03:30.134Z,1000.85
2022-12-17T01:04:30.135Z,1000.89
2022-12-17T01:05:30.136Z,1000.90
2022-12-17T01:06:30.111Z,1000.80
2022-12-17T01:07:30.127Z,1000.88
2022-12-17T01:08:30.104Z,1000.92
2022-12-17T01:09:30.094Z,1000.87
2022-12-17T01:10:30.120Z,1000.95
2022-12-17T01:11:30.110Z,1000.90
2022-12-17T01:12:30.082Z,1000.90
2022-12-17T01:13:30.089Z,1000.94
2022-12-17T01:14:30.062Z,1000.93
2022-12-17T01:15:30.076Z,1000.97
2022-12-17T01:16:30.219Z,1000.98
2022-12-17T01:17:30.080Z,1001.02
2022-12-17T01:18:30.064Z,1001.04
2022-12-17T01:19:30.128Z,1001.05
2022-12-17T01:20:30.042Z,1001.02
2022-12-17T01:21:30.078Z,1001.01
2022-12-17T01:22:30.042Z,1001.03
2022-12-17T01:23:30.086Z,1001.00
2022-12-17T01:24:30.010Z,1001.03
2022-12-17T01:25:30.024Z,1001.07
2022-12-17T01:26:30.000Z,1001.03
2022-12-17T01:27:30.027Z,1000.99
2022-12-17T01:28:30.009Z,1001.05
2022-12-17T01:29:30.000Z,1001.07
2022-12-17T01:30:29.987Z,1001.10
2022-12-17T01:31:34.642Z,1001.13
2022-12-17T01:32:31.006Z,1001.16
2022-12-17T01:33:29.986Z,1001.16
2022-12-17T01:34:30.009Z,1001.15
2022-12-17T01:35:30.651Z,1001.21
2022-12-17T01:36:29.957Z,1001.21
2022-12-17T01:37:29.964Z,1001.20
2022-12-17T01:38:29.961Z,1001.12
2022-12-17T01:39:29.951Z,1001.20
2022-12-17T01:40:29.936Z,1001.19
2022-12-17T01:41:29.938Z,1001.20
2022-12-17T01:42:29.926Z,1001.22
2022-12-17T01:43:29.913Z,1001.18
2022-12-17T01:44:30.002Z,1001.21
2022-12-17T01:45:29.953Z,1001.26
2022-12-17T01:46:29.917Z,1001.18
2022-12-17T01:47:29.908Z,1001.24
2022-12-17T01:48:29.895Z,1001.26
2022-12-17T01:49:29.897Z,1001.29
2022-12-17T01:50:29.891Z,1001.34
2022-12-17T01:51:29.878Z,1001.34
2022-12-17T01:52:29.895Z,1001.32
2022-12-17T01:53:29.903Z,1001.32
2022-12-17T01:54:29.870Z,1001.40
2022-12-17T01:55:29.892Z,1001.38
2022-12-17T01:56:29.869Z,1001.34
2022-12-17T01:57:29.847Z,1001.36
2022-12-17T01:58:29.860Z,1001.36
2022-12-17T01:59:29.843Z,1001.35
2022-12-17T02:00:29.835Z,1001.36
2022-12-17T02:01:29.927Z,1001.32
2022-12-17T02:02:30.031Z,1001.35
2022-12-17T02:03:29.814Z,1001.44
2022-12-17T02:04:29.827Z,1001.40
2022-12-17T02:05:29.803Z,1001.38
2022-12-17T02:06:29.825Z,1001.38
2022-12-17T02:07:29.859Z,1001.33
2022-12-17T02:08:29.817Z,1001.41
2022-12-17T02:09:29.818Z,1001.32
2022-12-17T02:10:29.786Z,1001.38
2022-12-17T02:11:29.775Z,1001.47
2022-12-17T02:12:29.806Z,1001.43
2022-12-17T02:13:29.764Z,1001.41
2022-12-17T02:14:29.783Z,1001.41
2022-12-17T02:15:29.768Z,1001.42
2022-12-17T02:16:29.865Z,1001.41
2022-12-17T02:17:29.758Z,1001.43
2022-12-17T02:18:29.766Z,1001.39
2022-12-17T02:19:29.746Z,1001.48
2022-12-17T02:20:29.747Z,1001.39
2022-12-17T02:21:29.722Z,1001.43
2022-12-17T02:22:29.754Z,1001.43
2022-12-17T02:23:30.045Z,1001.41
2022-12-17T02:24:29.737Z,1001.41
2022-12-17T02:25:29.733Z,1001.43
2022-12-17T02:26:29.719Z,1001.46
2022-12-17T02:27:29.708Z,1001.48
2022-12-17T02:28:29.703Z,1001.43
2022-12-17T02:29:29.699Z,1001.46
2022-12-17T02:30:29.695Z,1001.47
2022-12-17T02:31:29.728Z,1001.46
2022-12-17T02:32:29.688Z,1001.49
2022-12-17T02:33:29.688Z,1001.42
2022-12-17T02:34:29.747Z,1001.45
2022-12-17T02:35:29.667Z,1001.45
2022-12-17T02:36:29.653Z,1001.41
2022-12-17T02:37:29.652Z,1001.43
2022-12-17T02:38:29.652Z,1001.40
2022-12-17T02:39:29.628Z,1001.42
2022-12-17T02:40:29.659Z,1001.46
2022-12-17T02:41:29.657Z,1001.43
2022-12-17T02:42:29.647Z,1001.38
2022-12-17T02:43:29.651Z,1001.43
2022-12-17T02:44:29.646Z,1001.46
2022-12-17T02:45:29.680Z,1001.42
2022-12-17T02:46:29.636Z,1001.46
2022-12-17T02:47:29.600Z,1001.52
2022-12-17T02:48:29.593Z,1001.51
2022-12-17T02:49:29.590Z,1001.50
2022-12-17T02:50:29.584Z,1001.51
2022-12-17T02:51:29.588Z,1001.50
2022-12-17T02:52:34.710Z,1001.54
2022-12-17T02:53:29.559Z,1001.50
2022-12-17T02:54:29.576Z,1001.47
2022-12-17T02:55:29.568Z,1001.50
2022-12-17T02:56:29.560Z,1001.48
2022-12-17T02:57:29.561Z,1001.56
2022-12-17T02:58:29.563Z,1001.51
2022-12-17T02:59:29.542Z,1001.54
2022-12-17T03:00:29.541Z,1001.56
2022-12-17T03:01:29.725Z,1001.60
2022-12-17T03:02:29.687Z,1001.64
2022-12-17T03:03:29.560Z,1001.56
2022-12-17T03:04:29.686Z,1001.64
2022-12-17T03:05:44.964Z,1001.63
2022-12-17T03:06:30.525Z,1001.60
2022-12-17T03:07:29.691Z,1001.64
2022-12-17T03:08:29.491Z,1001.63
2022-12-17T03:09:29.509Z,1001.69
2022-12-17T03:10:29.480Z,1001.67
2022-12-17T03:11:29.477Z,1001.63
2022-12-17T03:12:29.487Z,1001.64
2022-12-17T03:13:29.492Z,1001.67
2022-12-17T03:14:29.476Z,1001.67
2022-12-17T03:15:29.466Z,1001.62
2022-12-17T03:16:34.183Z,1001.65
2022-12-17T03:17:29.454Z,1001.60
2022-12-17T03:18:29.440Z,1001.69
2022-12-17T03:19:29.432Z,1001.72
2022-12-17T03:20:29.454Z,1001.72
2022-12-17T03:21:29.416Z,1001.73
2022-12-17T03:22:29.436Z,1001.72
2022-12-17T03:23:29.422Z,1001.70
2022-12-17T03:24:29.407Z,1001.74
2022-12-17T03:25:29.409Z,1001.76
2022-12-17T03:26:29.402Z,1001.81
2022-12-17T03:27:29.386Z,1001.82
2022-12-17T03:28:29.416Z,1001.83
2022-12-17T03:29:29.498Z,1001.84
2022-12-17T03:30:33.221Z,1001.78
2022-12-17T03:31:30.465Z,1001.78
2022-12-17T03:32:29.387Z,1001.79
2022-12-17T03:33:29.356Z,1001.79
2022-12-17T03:34:29.392Z,1001.73
2022-12-17T03:35:29.359Z,1001.73
2022-12-17T03:36:29.350Z,1001.80
2022-12-17T03:37:29.363Z,1001.76
2022-12-17T03:38:29.343Z,1001.78
2022-12-17T03:39:29.334Z,1001.79
2022-12-17T03:40:29.402Z,1001.81
2022-12-17T03:41:29.315Z,1001.86
2022-12-17T03:42:29.345Z,1001.86
2022-12-17T03:43:29.333Z,1001.83
2022-12-17T03:44:29.347Z,1001.83
2022-12-17T03:45:29.320Z,1001.83
2022-12-17T03:46:29.384Z,1001.82
2022-12-17T03:47:29.324Z,1001.89
2022-12-17T03:48:29.314Z,1001.87
2022-12-17T03:49:29.288Z,1001.86
2022-12-17T03:50:29.280Z,1001.94
2022-12-17T03:51:29.274Z,1001.87
2022-12-17T03:52:29.286Z,1001.87
2022-12-17T03:53:29.415Z,1001.89
2022-12-17T03:54:29.279Z,1001.91
2022-12-17T03:55:29.254Z,1001.86
2022-12-17T03:56:29.248Z,1001.91
2022-12-17T03:57:29.241Z,1001.88
2022-12-17T03:58:29.273Z,1001.84
2022-12-17T03:59:29.238Z,1001.83
2022-12-17T04:00:29.240Z,1001.88
2022-12-17T04:01:29.454Z,1001.87
2022-12-17T04:02:29.479Z,1001.91
2022-12-17T04:03:29.318Z,1001.96
2022-12-17T04:04:29.219Z,1002.01
2022-12-17T04:05:29.199Z,1001.96
2022-12-17T04:06:29.218Z,1001.94
2022-12-17T04:07:29.196Z,1001.92
2022-12-17T04:08:29.186Z,1001.90
2022-12-17T04:09:29.188Z,1001.90
2022-12-17T04:10:29.179Z,1001.96
2022-12-17T04:11:29.158Z,1001.95
2022-12-17T04:12:29.172Z,1001.95
2022-12-17T04:13:29.200Z,1001.99
2022-12-17T04:14:29.166Z,1002.04
2022-12-17T04:15:29.201Z,1002.02
2022-12-17T04:16:29.141Z,1002.07
2022-12-17T04:17:29.161Z,1002.07
2022-12-17T04:18:29.157Z,1002.09
2022-12-17T04:19:29.116Z,1002.06
2022-12-17T04:20:29.543Z,1002.12
2022-12-17T04:21:29.114Z,1002.02
2022-12-17T04:22:29.126Z,1002.02
2022-12-17T04:23:29.111Z,1002.10
2022-12-17T04:24:29.105Z,1002.00
2022-12-17T04:25:29.104Z,1002.08
2022-12-17T04:26:29.097Z,1002.05
2022-12-17T04:27:29.078Z,1002.07
2022-12-17T04:28:29.068Z,1002.03
2022-12-17T04:29:29.088Z,1002.03
2022-12-17T04:30:29.090Z,1002.04
2022-12-17T04:31:29.157Z,1002.05
2022-12-17T04:32:33.643Z,1002.01
2022-12-17T04:33:30.104Z,1002.13
2022-12-17T04:34:29.052Z,1002.13
2022-12-17T04:35:29.048Z,1002.08
2022-12-17T04:36:29.039Z,1002.10
2022-12-17T04:37:29.035Z,1002.14
2022-12-17T04:38:29.027Z,1002.04
2022-12-17T04:39:29.050Z,1002.06
2022-12-17T04:40:29.012Z,1002.04
2022-12-17T04:41:29.021Z,1002.05
2022-12-17T04:42:29.013Z,1002.01
2022-12-17T04:43:29.074Z,1002.05
2022-12-17T04:44:29.207Z,1001.97
2022-12-17T04:45:29.011Z,1002.01
2022-12-17T04:46:29.028Z,1001.98
2022-12-17T04:47:29.001Z,1002.07
2022-12-17T04:48:29.132Z,1002.07
2022-12-17T04:49:29.121Z,1002.09
2022-12-17T04:50:28.954Z,1002.11
2022-12-17T04:51:28.975Z,1002.12
2022-12-17T04:52:28.945Z,1002.10
2022-12-17T04:53:28.970Z,1002.15
2022-12-17T04:54:28.949Z,1002.15
2022-12-17T04:55:28.962Z,1002.15
2022-12-17T04:56:28.941Z,1002.20
2022-12-17T04:57:29.002Z,1002.12
2022-12-17T04:58:28.946Z,1002.14
2022-12-17T04:59:28.931Z,1002.19
2022-12-17T05:00:28.918Z,1002.17
2022-12-17T05:01:29.115Z,1002.19
2022-12-17T05:02:29.098Z,1002.23
2022-12-17T05:03:29.092Z,1002.24
2022-12-17T05:04:28.934Z,1002.23
2022-12-17T05:05:29.006Z,1002.32
2022-12-17T05:06:28.889Z,1002.35
2022-12-17T05:07:28.893Z,1002.35
2022-12-17T05:08:28.890Z,1002.32
2022-12-17T05:09:28.873Z,1002.26
2022-12-17T05:10:28.927Z,1002.28
2022-12-17T05:11:28.874Z,1002.32
2022-12-17T05:12:28.849Z,1002.39
2022-12-17T05:13:28.866Z,1002.39
2022-12-17T05:14:28.853Z,1002.43
2022-12-17T05:15:28.841Z,1002.33
2022-12-17T05:16:28.921Z,1002.42
2022-12-17T05:17:28.831Z,1002.41
2022-12-17T05:18:28.830Z,1002.40
2022-12-17T05:19:28.838Z,1002.43
2022-12-17T05:20:28.829Z,1002.38
2022-12-17T05:21:33.171Z,1002.45
2022-12-17T05:22:28.814Z,1002.43
2022-12-17T05:23:28.817Z,1002.47
2022-12-17T05:24:28.799Z,1002.49
2022-12-17T05:25:28.801Z,1002.47
2022-12-17T05:26:28.798Z,1002.47
2022-12-17T05:27:28.771Z,1002.54
2022-12-17T05:28:28.800Z,1002.55
2022-12-17T05:29:28.777Z,1002.54
2022-12-17T05:30:28.764Z,1002.53
2022-12-17T05:31:28.887Z,1002.62
2022-12-17T05:32:28.751Z,1002.65
2022-12-17T05:33:28.753Z,1002.66
2022-12-17T05:34:28.767Z,1002.64
2022-12-17T05:35:28.729Z,1002.72
2022-12-17T05:36:28.749Z,1002.68
2022-12-17T05:37:28.797Z,1002.72
2022-12-17T05:38:28.744Z,1002.78
2022-12-17T05:39:28.713Z,1002.74
2022-12-17T05:40:28.728Z,1002.73
2022-12-17T05:41:28.702Z,1002.72
2022-12-17T05:42:28.703Z,1002.76
2022-12-17T05:43:28.705Z,1002.74
2022-12-17T05:44:28.719Z,1002.71
2022-12-17T05:45:28.709Z,1002.77
2022-12-17T05:46:28.777Z,1002.80
2022-12-17T05:47:28.668Z,1002.76
2022-12-17T05:48:28.683Z,1002.77
2022-12-17T05:49:28.660Z,1002.80
2022-12-17T05:50:28.678Z,1002.86
2022-12-17T05:51:28.663Z,1002.80
2022-12-17T05:52:28.682Z,1002.85
2022-12-17T05:53:28.764Z,1002.86
2022-12-17T05:54:28.655Z,1002.82
2022-12-17T05:55:28.638Z,1002.86
2022-12-17T05:56:28.628Z,1002.88
2022-12-17T05:57:28.633Z,1002.82
2022-12-17T05:58:28.632Z,1002.84
2022-12-17T05:59:28.617Z,1002.87
2022-12-17T06:00:28.622Z,1002.84
2022-12-17T06:01:28.614Z,1002.84
2022-12-17T06:02:28.649Z,1002.79
2022-12-17T06:03:28.794Z,1002.85
2022-12-17T06:04:28.589Z,1002.87
2022-12-17T06:05:28.594Z,1002.89
2022-12-17T06:06:28.615Z,1002.89
2022-12-17T06:07:28.567Z,1002.91
2022-12-17T06:08:28.583Z,1002.90
2022-12-17T06:09:28.591Z,1002.92
2022-12-17T06:10:28.620Z,1002.91
2022-12-17T06:11:28.545Z,1002.96
2022-12-17T06:12:28.605Z,1002.96
2022-12-17T06:13:28.537Z,1003.00
2022-12-17T06:14:28.539Z,1002.98
2022-12-17T06:15:28.545Z,1003.02
2022-12-17T06:16:28.665Z,1003.02
2022-12-17T06:17:28.530Z,1003.05
2022-12-17T06:18:28.546Z,1003.04
2022-12-17T06:19:28.520Z,1003.05
2022-12-17T06:20:28.523Z,1003.02
2022-12-17T06:21:28.496Z,1003.02
2022-12-17T06:22:28.510Z,1003.08
2022-12-17T06:23:28.502Z,1003.06
2022-12-17T06:24:28.496Z,1003.09
2022-12-17T06:25:28.527Z,1003.13
2022-12-17T06:26:28.505Z,1003.14
2022-12-17T06:27:28.462Z,1003.11
2022-12-17T06:28:28.481Z,1003.13
2022-12-17T06:29:28.469Z,1003.13
2022-12-17T06:30:28.475Z,1003.16
2022-12-17T06:31:28.559Z,1003.07
2022-12-17T06:32:28.451Z,1003.12
2022-12-17T06:33:28.446Z,1003.16
2022-12-17T06:34:28.444Z,1003.16
2022-12-17T06:35:28.445Z,1003.17
2022-12-17T06:36:28.433Z,1003.23
2022-12-17T06:37:28.411Z,1003.19
2022-12-17T06:38:28.411Z,1003.23
2022-12-17T06:39:28.430Z,1003.27
2022-12-17T06:40:28.415Z,1003.24
2022-12-17T06:41:28.420Z,1003.20
2022-12-17T06:42:28.394Z,1003.26
2022-12-17T06:43:28.386Z,1003.26
2022-12-17T06:44:28.381Z,1003.17
2022-12-17T06:45:28.382Z,1003.19
2022-12-17T06:46:28.433Z,1003.16
2022-12-17T06:47:28.370Z,1003.21
2022-12-17T06:48:28.376Z,1003.19
2022-12-17T06:49:28.344Z,1003.21
2022-12-17T06:50:28.375Z,1003.24
2022-12-17T06:51:28.349Z,1003.22
2022-12-17T06:52:28.340Z,1003.17
2022-12-17T06:53:28.394Z,1003.20
2022-12-17T06:54:28.342Z,1003.22
2022-12-17T06:55:28.324Z,1003.25
2022-12-17T06:56:28.319Z,1003.26
2022-12-17T06:57:28.343Z,1003.24
2022-12-17T06:58:28.351Z,1003.31
2022-12-17T06:59:28.299Z,1003.31
2022-12-17T07:00:28.391Z,1003.30
2022-12-17T07:01:28.441Z,1003.33
2022-12-17T07:02:28.454Z,1003.32
2022-12-17T07:03:28.417Z,1003.34
2022-12-17T07:04:28.285Z,1003.35
2022-12-17T07:05:28.278Z,1003.34
2022-12-17T07:06:28.328Z,1003.40
2022-12-17T07:07:28.257Z,1003.39
2022-12-17T07:08:28.292Z,1003.43
2022-12-17T07:09:28.268Z,1003.39
2022-12-17T07:10:28.265Z,1003.39
2022-12-17T07:11:28.327Z,1003.35
2022-12-17T07:12:28.247Z,1003.42
2022-12-17T07:13:28.248Z,1003.36
2022-12-17T07:14:28.256Z,1003.39
2022-12-17T07:15:28.250Z,1003.41
2022-12-17T07:16:28.293Z,1003.37
2022-12-17T07:17:28.216Z,1003.44
2022-12-17T07:18:28.221Z,1003.52
2022-12-17T07:19:28.205Z,1003.56
2022-12-17T07:20:28.356Z,1003.61
2022-12-17T07:21:28.204Z,1003.66
2022-12-17T07:22:28.194Z,1003.69
2022-12-17T07:23:28.222Z,1003.65
2022-12-17T07:24:28.167Z,1003.73
2022-12-17T07:25:28.177Z,1003.82
2022-12-17T07:26:28.179Z,1003.77
2022-12-17T07:27:28.154Z,1003.73
2022-12-17T07:28:28.144Z,1003.85
2022-12-17T07:29:28.194Z,1003.85
2022-12-17T07:30:28.156Z,1003.85
2022-12-17T07:31:28.174Z,1003.87
2022-12-17T07:32:28.146Z,1003.85
2022-12-17T07:33:28.141Z,1003.87
2022-12-17T07:34:28.115Z,1003.88
2022-12-17T07:35:28.117Z,1003.86
2022-12-17T07:36:28.103Z,1003.85
2022-12-17T07:37:28.107Z,1003.83
2022-12-17T07:38:28.113Z,1003.90
2022-12-17T07:39:28.096Z,1003.85
2022-12-17T07:40:28.105Z,1003.85
2022-12-17T07:41:28.101Z,1003.86
2022-12-17T07:42:28.071Z,1003.93
2022-12-17T07:43:28.071Z,1004.04
2022-12-17T07:44:28.072Z,1004.01
2022-12-17T07:45:28.166Z,1004.07
2022-12-17T07:46:28.052Z,1004.03
2022-12-17T07:47:28.064Z,1004.09
2022-12-17T07:48:28.045Z,1003.99
2022-12-17T07:49:28.179Z,1004.13
2022-12-17T07:50:28.045Z,1004.08
2022-12-17T07:51:28.070Z,1004.00
2022-12-17T07:52:28.079Z,1004.10
2022-12-17T07:53:28.043Z,1004.14
2022-12-17T07:54:28.205Z,1004.18
2022-12-17T07:55:28.028Z,1004.19
2022-12-17T07:56:28.023Z,1004.26
2022-12-17T07:57:28.011Z,1004.31
2022-12-17T07:58:28.011Z,1004.27
2022-12-17T07:59:28.011Z,1004.34
2022-12-17T08:00:28.112Z,1004.33
2022-12-17T08:01:28.139Z,1004.27
2022-12-17T08:02:28.251Z,1004.35
2022-12-17T08:03:28.030Z,1004.35
2022-12-17T08:04:27.970Z,1004.38
2022-12-17T08:05:27.973Z,1004.37
2022-12-17T08:06:27.963Z,1004.38
2022-12-17T08:07:27.966Z,1004.39
2022-12-17T08:08:27.943Z,1004.31
2022-12-17T08:09:27.942Z,1004.37
2022-12-17T08:10:27.943Z,1004.42
2022-12-17T08:11:27.966Z,1004.36
2022-12-17T08:12:27.930Z,1004.38
2022-12-17T08:13:27.936Z,1004.36
2022-12-17T08:14:27.903Z,1004.41
2022-12-17T08:15:27.910Z,1004.32
2022-12-17T08:16:27.988Z,1004.43
2022-12-17T08:17:27.981Z,1004.41
2022-12-17T08:18:27.890Z,1004.47
2022-12-17T08:19:27.932Z,1004.42
2022-12-17T08:20:27.870Z,1004.55
2022-12-17T08:21:27.899Z,1004.51
2022-12-17T08:22:27.915Z,1004.57
2022-12-17T08:23:27.859Z,1004.61
2022-12-17T08:24:27.862Z,1004.60
2022-12-17T08:25:27.866Z,1004.65
2022-12-17T08:26:27.831Z,1004.60
2022-12-17T08:27:27.850Z,1004.71
2022-12-17T08:28:49.460Z,1004.64
2022-12-17T08:29:28.827Z,1004.67
2022-12-17T08:30:27.909Z,1004.65
2022-12-17T08:31:27.821Z,1004.67
2022-12-17T08:32:27.825Z,1004.60
2022-12-17T08:33:27.882Z,1004.62
2022-12-17T08:34:27.797Z,1004.65
2022-12-17T08:35:27.811Z,1004.60
2022-12-17T08:36:27.788Z,1004.58
2022-12-17T08:37:27.793Z,1004.64
2022-12-17T08:38:27.803Z,1004.67
2022-12-17T08:39:27.806Z,1004.62
2022-12-17T08:40:27.787Z,1004.67
2022-12-17T08:41:27.782Z,1004.67
2022-12-17T08:42:27.755Z,1004.75
2022-12-17T08:43:27.802Z,1004.75
2022-12-17T08:44:27.764Z,1004.74
2022-12-17T08:45:27.747Z,1004.70
2022-12-17T08:46:27.897Z,1004.72
2022-12-17T08:47:27.749Z,1004.66
2022-12-17T08:48:27.719Z,1004.73
2022-12-17T08:49:27.754Z,1004.70
2022-12-17T08:50:27.757Z,1004.74
2022-12-17T08:51:27.710Z,1004.75
2022-12-17T08:52:27.721Z,1004.79
2022-12-17T08:53:31.925Z,1004.74
2022-12-17T08:54:28.748Z,1004.74
2022-12-17T08:55:27.726Z,1004.80
2022-12-17T08:56:27.687Z,1004.77
2022-12-17T08:57:31.917Z,1004.83
2022-12-17T08:58:27.675Z,1004.76
2022-12-17T08:59:27.787Z,1004.82
2022-12-17T09:00:27.789Z,1004.83
2022-12-17T09:01:27.850Z,1004.89
2022-12-17T09:02:27.878Z,1004.88
2022-12-17T09:03:27.750Z,1004.88
2022-12-17T09:04:27.644Z,1004.91
2022-12-17T09:05:27.675Z,1004.86
2022-12-17T09:06:27.635Z,1004.91
2022-12-17T09:07:27.631Z,1004.87
2022-12-17T09:08:27.629Z,1004.95
2022-12-17T09:09:27.611Z,1004.91
2022-12-17T09:10:27.612Z,1004.92
2022-12-17T09:11:27.612Z,1004.95
2022-12-17T09:12:27.608Z,1004.91
2022-12-17T09:13:27.603Z,1004.93
2022-12-17T09:14:27.572Z,1004.92
2022-12-17T09:15:27.590Z,1004.98
2022-12-17T09:16:27.653Z,1004.96
2022-12-17T09:17:27.584Z,1004.96
2022-12-17T09:18:27.564Z,1004.93
2022-12-17T09:19:27.566Z,1004.96
2022-12-17T09:20:29.396Z,1005.00
2022-12-17T09:21:27.565Z,1005.02
2022-12-17T09:22:27.539Z,1004.99
2022-12-17T09:23:27.526Z,1005.08
2022-12-17T09:24:27.526Z,1004.97
2022-12-17T09:25:27.533Z,1005.01
2022-12-17T09:26:27.504Z,1005.02
2022-12-17T09:27:27.522Z,1004.99
2022-12-17T09:28:27.522Z,1005.01
2022-12-17T09:29:27.512Z,1005.03
2022-12-17T09:30:27.548Z,1004.99
2022-12-17T09:31:31.150Z,1005.03
2022-12-17T09:32:28.483Z,1005.02
2022-12-17T09:33:27.496Z,1005.07
2022-12-17T09:34:27.458Z,1005.17
2022-12-17T09:35:27.465Z,1005.08
2022-12-17T09:36:27.850Z,1005.08
2022-12-17T09:37:27.466Z,1005.09
2022-12-17T09:38:27.463Z,1005.10
2022-12-17T09:39:27.579Z,1005.16
2022-12-17T09:40:27.441Z,1005.10
2022-12-17T09:41:27.426Z,1005.15
2022-12-17T09:42:27.415Z,1005.20
2022-12-17T09:43:27.429Z,1005.18
2022-12-17T09:44:27.438Z,1005.21
2022-12-17T09:45:27.579Z,1005.16
2022-12-17T09:46:27.569Z,1005.21
2022-12-17T09:47:27.381Z,1005.18
2022-12-17T09:48:32.210Z,1005.17
2022-12-17T09:49:28.393Z,1005.17
2022-12-17T09:50:27.370Z,1005.19
2022-12-17T09:51:27.359Z,1005.16
2022-12-17T09:52:27.373Z,1005.07
2022-12-17T09:53:27.379Z,1005.06
2022-12-17T09:54:27.358Z,1005.14
2022-12-17T09:55:27.362Z,1005.13
2022-12-17T09:56:27.344Z,1005.13
2022-12-17T09:57:27.326Z,1005.17
2022-12-17T09:58:27.345Z,1005.10
2022-12-17T09:59:27.502Z,1005.16
2022-12-17T10:00:27.334Z,1005.18
2022-12-17T10:01:27.500Z,1005.20
2022-12-17T10:02:27.480Z,1005.20
2022-12-17T10:03:27.429Z,1005.20
2022-12-17T10:04:27.295Z,1005.17
2022-12-17T10:05:27.285Z,1005.20
2022-12-17T10:06:28.149Z,1005.21
2022-12-17T10:07:27.279Z,1005.20
2022-12-17T10:08:27.271Z,1005.20
2022-12-17T10:09:27.278Z,1005.20
2022-12-17T10:10:27.308Z,1005.18
2022-12-17T10:11:32.670Z,1005.15
2022-12-17T10:12:28.316Z,1005.27
2022-12-17T10:13:27.241Z,1005.19
2022-12-17T10:14:27.231Z,1005.17
2022-12-17T10:15:27.307Z,1005.13
2022-12-17T10:16:27.250Z,1005.19
2022-12-17T10:17:27.223Z,1005.19
2022-12-17T10:18:27.236Z,1005.17
2022-12-17T10:19:27.216Z,1005.27
2022-12-17T10:20:27.209Z,1005.28
2022-12-17T10:21:27.192Z,1005.26
2022-12-17T10:22:27.189Z,1005.27
2022-12-17T10:23:27.269Z,1005.25
2022-12-17T10:24:27.184Z,1005.22
2022-12-17T10:25:27.191Z,1005.19
2022-12-17T10:26:27.159Z,1005.21
2022-12-17T10:27:27.175Z,1005.22
2022-12-17T10:28:27.155Z,1005.21
2022-12-17T10:29:27.154Z,1005.19
2022-12-17T10:30:27.127Z,1005.14
2022-12-17T10:31:27.212Z,1005.21
2022-12-17T10:32:27.138Z,1005.18
2022-12-17T10:33:27.130Z,1005.14
2022-12-17T10:34:27.115Z,1005.13
2022-12-17T10:35:27.125Z,1005.16
2022-12-17T10:36:27.086Z,1005.18
2022-12-17T10:37:27.104Z,1005.17
2022-12-17T10:38:27.145Z,1005.13
2022-12-17T10:39:27.090Z,1005.16
2022-12-17T10:40:27.078Z,1005.28
2022-12-17T10:41:34.264Z,1005.25
2022-12-17T10:42:30.171Z,1005.22
2022-12-17T10:43:28.062Z,1005.28
2022-12-17T10:44:27.036Z,1005.28
2022-12-17T10:45:27.065Z,1005.21
2022-12-17T10:46:27.109Z,1005.25
2022-12-17T10:47:27.028Z,1005.24
2022-12-17T10:48:27.096Z,1005.22
2022-12-17T10:49:27.048Z,1005.24
2022-12-17T10:50:26.993Z,1005.28
2022-12-17T10:51:27.074Z,1005.26
2022-12-17T10:52:27.024Z,1005.37
2022-12-17T10:53:27.119Z,1005.26
2022-12-17T10:54:26.969Z,1005.38
2022-12-17T10:55:26.985Z,1005.38
2022-12-17T10:56:26.957Z,1005.38
2022-12-17T10:57:27.016Z,1005.27
2022-12-17T10:58:26.971Z,1005.27
2022-12-17T10:59:26.962Z,1005.20
2022-12-17T11:00:26.947Z,1005.25
2022-12-17T11:01:27.160Z,1005.25
2022-12-17T11:02:27.149Z,1005.25
2022-12-17T11:03:27.077Z,1005.24
2022-12-17T11:04:26.941Z,1005.28
2022-12-17T11:05:26.926Z,1005.22
2022-12-17T11:06:26.905Z,1005.30
2022-12-17T11:07:26.893Z,1005.24
2022-12-17T11:08:26.880Z,1005.28
2022-12-17T11:09:26.904Z,1005.25
2022-12-17T11:10:26.891Z,1005.28
2022-12-17T11:11:26.879Z,1005.26
2022-12-17T11:12:30.573Z,1005.27
2022-12-17T11:13:26.908Z,1005.26
2022-12-17T11:14:26.847Z,1005.28
2022-12-17T11:15:26.889Z,1005.27
2022-12-17T11:16:26.915Z,1005.28
2022-12-17T11:17:26.841Z,1005.29
2022-12-17T11:18:26.824Z,1005.31
2022-12-17T11:19:26.818Z,1005.31
2022-12-17T11:20:26.829Z,1005.31
2022-12-17T11:21:26.848Z,1005.29
2022-12-17T11:22:26.793Z,1005.36
2022-12-17T11:23:26.802Z,1005.37
2022-12-17T11:24:26.793Z,1005.34
2022-12-17T11:25:26.777Z,1005.29
2022-12-17T11:26:26.762Z,1005.32
2022-12-17T11:27:26.782Z,1005.31
2022-12-17T11:28:26.754Z,1005.29
2022-12-17T11:29:26.795Z,1005.31
2022-12-17T11:30:30.741Z,1005.28
2022-12-17T11:31:26.821Z,1005.20
2022-12-17T11:32:26.801Z,1005.26
2022-12-17T11:33:26.736Z,1005.23
2022-12-17T11:34:26.722Z,1005.16
2022-12-17T11:35:26.753Z,1005.18
2022-12-17T11:36:32.425Z,1005.24
2022-12-17T11:37:27.755Z,1005.23
2022-12-17T11:38:26.707Z,1005.20
2022-12-17T11:39:26.700Z,1005.21
2022-12-17T11:40:26.702Z,1005.17
2022-12-17T11:41:26.704Z,1005.14
2022-12-17T11:42:26.686Z,1005.19
2022-12-17T11:43:26.686Z,1005.20
2022-12-17T11:44:26.666Z,1005.19
2022-12-17T11:45:26.701Z,1005.18
2022-12-17T11:46:26.744Z,1005.18
2022-12-17T11:47:26.645Z,1005.23
2022-12-17T11:48:26.671Z,1005.22
2022-12-17T11:49:26.636Z,1005.23
2022-12-17T11:50:26.618Z,1005.20
2022-12-17T11:51:26.635Z,1005.19
2022-12-17T11:52:26.608Z,1005.17
2022-12-17T11:53:28.318Z,1005.17
2022-12-17T11:54:26.611Z,1005.19
2022-12-17T11:55:26.593Z,1005.24
2022-12-17T11:56:26.580Z,1005.19
2022-12-17T11:57:26.593Z,1005.21
2022-12-17T11:58:26.596Z,1005.28
2022-12-17T11:59:26.576Z,1005.23
2022-12-17T12:00:26.569Z,1005.25
2022-12-17T12:01:26.632Z,1005.31
2022-12-17T12:02:26.587Z,1005.30
2022-12-17T12:03:26.748Z,1005.27
2022-12-17T12:04:26.548Z,1005.28
2022-12-17T12:05:26.561Z,1005.25